sensor_id;sensor_type;location;lat;lon;timestamp;P1;durP1;ratioP1;P2;durP2;ratioP2
82727;SDS011;72459;50.110;8.750;2024-02-16T00:00:00;4.63;;;1.90;;
82727;SDS011;72459;50.110;8.750;2024-02-16T00:02:26;5.50;;;2.50;;
82727;SDS011;72459;50.110;8.750;2024-02-16T00:04:52;3.47;;;1.90;;
82727;SDS011;72459;50.110;8.750;2024-02-16T00:07:17;5.18;;;2.50;;
82727;SDS011;72459;50.110;8.750;2024-02-16T00:09:43;4.00;;;2.10;;
82727;SDS011;72459;50.110;8.750;2024-02-16T00:12:08;5.13;;;2.25;;
82727;SDS011;72459;50.110;8.750;2024-02-16T00:14:33;4.10;;;1.95;;
82727;SDS011;72459;50.110;8.750;2024-02-16T00:16:59;4.45;;;2.17;;
82727;SDS011;72459;50.110;8.750;2024-02-16T00:19:24;6.13;;;2.42;;
82727;SDS011;72459;50.110;8.750;2024-02-16T00:21:50;5.43;;;2.00;;
82727;SDS011;72459;50.110;8.750;2024-02-16T00:24:16;4.45;;;2.20;;
82727;SDS011;72459;50.110;8.750;2024-02-16T00:26:41;4.63;;;1.98;;
82727;SDS011;72459;50.110;8.750;2024-02-16T00:29:08;4.00;;;2.22;;
82727;SDS011;72459;50.110;8.750;2024-02-16T00:31:33;5.82;;;2.50;;
82727;SDS011;72459;50.110;8.750;2024-02-16T00:33:59;4.50;;;2.40;;
82727;SDS011;72459;50.110;8.750;2024-02-16T00:36:26;5.03;;;2.10;;
82727;SDS011;72459;50.110;8.750;2024-02-16T00:38:53;4.82;;;2.03;;
82727;SDS011;72459;50.110;8.750;2024-02-16T00:41:19;3.65;;;2.03;;
82727;SDS011;72459;50.110;8.750;2024-02-16T00:43:46;4.07;;;2.10;;
82727;SDS011;72459;50.110;8.750;2024-02-16T00:46:12;4.30;;;2.53;;
82727;SDS011;72459;50.110;8.750;2024-02-16T00:48:37;5.25;;;2.40;;
82727;SDS011;72459;50.110;8.750;2024-02-16T00:51:02;4.03;;;2.03;;
82727;SDS011;72459;50.110;8.750;2024-02-16T00:53:28;5.25;;;2.40;;
82727;SDS011;72459;50.110;8.750;2024-02-16T00:55:53;4.67;;;2.10;;
82727;SDS011;72459;50.110;8.750;2024-02-16T00:58:19;3.47;;;1.63;;
82727;SDS011;72459;50.110;8.750;2024-02-16T01:00:44;3.45;;;1.85;;
82727;SDS011;72459;50.110;8.750;2024-02-16T01:03:10;5.07;;;2.00;;
82727;SDS011;72459;50.110;8.750;2024-02-16T01:05:35;3.63;;;1.90;;
82727;SDS011;72459;50.110;8.750;2024-02-16T01:08:01;5.63;;;2.25;;
82727;SDS011;72459;50.110;8.750;2024-02-16T01:10:26;4.18;;;1.95;;
82727;SDS011;72459;50.110;8.750;2024-02-16T01:12:51;4.47;;;2.00;;
82727;SDS011;72459;50.110;8.750;2024-02-16T01:15:17;5.15;;;2.00;;
82727;SDS011;72459;50.110;8.750;2024-02-16T01:17:43;4.45;;;2.00;;
82727;SDS011;72459;50.110;8.750;2024-02-16T01:20:08;4.47;;;2.17;;
82727;SDS011;72459;50.110;8.750;2024-02-16T01:22:35;3.75;;;2.00;;
82727;SDS011;72459;50.110;8.750;2024-02-16T01:25:01;4.28;;;2.08;;
82727;SDS011;72459;50.110;8.750;2024-02-16T01:27:26;4.60;;;2.43;;
82727;SDS011;72459;50.110;8.750;2024-02-16T01:29:52;4.88;;;2.30;;
82727;SDS011;72459;50.110;8.750;2024-02-16T01:32:17;4.20;;;2.22;;
82727;SDS011;72459;50.110;8.750;2024-02-16T01:34:43;4.13;;;2.30;;
82727;SDS011;72459;50.110;8.750;2024-02-16T01:37:11;4.28;;;2.20;;
82727;SDS011;72459;50.110;8.750;2024-02-16T01:39:37;3.60;;;1.95;;
82727;SDS011;72459;50.110;8.750;2024-02-16T01:42:02;5.88;;;2.10;;
82727;SDS011;72459;50.110;8.750;2024-02-16T01:44:28;4.00;;;2.22;;
82727;SDS011;72459;50.110;8.750;2024-02-16T01:46:53;3.85;;;2.35;;
82727;SDS011;72459;50.110;8.750;2024-02-16T01:49:19;5.40;;;2.05;;
82727;SDS011;72459;50.110;8.750;2024-02-16T01:51:45;5.22;;;2.45;;
82727;SDS011;72459;50.110;8.750;2024-02-16T01:54:11;5.38;;;2.40;;
82727;SDS011;72459;50.110;8.750;2024-02-16T01:56:37;5.22;;;2.22;;
82727;SDS011;72459;50.110;8.750;2024-02-16T01:59:03;5.18;;;2.28;;
82727;SDS011;72459;50.110;8.750;2024-02-16T02:01:29;4.07;;;2.20;;
82727;SDS011;72459;50.110;8.750;2024-02-16T02:03:54;6.65;;;2.58;;
82727;SDS011;72459;50.110;8.750;2024-02-16T02:06:20;6.13;;;3.28;;
82727;SDS011;72459;50.110;8.750;2024-02-16T02:08:46;7.40;;;2.67;;
82727;SDS011;72459;50.110;8.750;2024-02-16T02:11:12;4.95;;;2.47;;
82727;SDS011;72459;50.110;8.750;2024-02-16T02:13:37;4.80;;;2.47;;
82727;SDS011;72459;50.110;8.750;2024-02-16T02:16:03;8.65;;;2.83;;
82727;SDS011;72459;50.110;8.750;2024-02-16T02:18:31;4.65;;;2.60;;
82727;SDS011;72459;50.110;8.750;2024-02-16T02:20:56;4.85;;;2.88;;
82727;SDS011;72459;50.110;8.750;2024-02-16T02:23:21;4.20;;;2.58;;
82727;SDS011;72459;50.110;8.750;2024-02-16T02:25:47;3.75;;;2.42;;
82727;SDS011;72459;50.110;8.750;2024-02-16T02:28:14;6.35;;;2.75;;
82727;SDS011;72459;50.110;8.750;2024-02-16T02:30:40;5.00;;;2.65;;
82727;SDS011;72459;50.110;8.750;2024-02-16T02:33:06;5.63;;;2.63;;
82727;SDS011;72459;50.110;8.750;2024-02-16T02:35:31;5.80;;;2.83;;
82727;SDS011;72459;50.110;8.750;2024-02-16T02:37:57;4.30;;;2.78;;
82727;SDS011;72459;50.110;8.750;2024-02-16T02:40:22;5.53;;;2.80;;
82727;SDS011;72459;50.110;8.750;2024-02-16T02:42:47;5.20;;;2.45;;
82727;SDS011;72459;50.110;8.750;2024-02-16T02:45:13;6.75;;;2.53;;
82727;SDS011;72459;50.110;8.750;2024-02-16T02:47:38;5.95;;;3.10;;
82727;SDS011;72459;50.110;8.750;2024-02-16T02:50:04;3.87;;;2.70;;
82727;SDS011;72459;50.110;8.750;2024-02-16T02:52:30;4.05;;;2.28;;
82727;SDS011;72459;50.110;8.750;2024-02-16T02:54:55;5.30;;;2.63;;
82727;SDS011;72459;50.110;8.750;2024-02-16T02:57:20;4.90;;;2.55;;
82727;SDS011;72459;50.110;8.750;2024-02-16T02:59:46;6.33;;;2.80;;
82727;SDS011;72459;50.110;8.750;2024-02-16T03:02:11;4.80;;;2.50;;
82727;SDS011;72459;50.110;8.750;2024-02-16T03:04:37;5.95;;;2.97;;
82727;SDS011;72459;50.110;8.750;2024-02-16T03:07:02;5.57;;;2.43;;
82727;SDS011;72459;50.110;8.750;2024-02-16T03:09:28;6.03;;;2.60;;
82727;SDS011;72459;50.110;8.750;2024-02-16T03:11:53;4.63;;;2.42;;
82727;SDS011;72459;50.110;8.750;2024-02-16T03:14:18;4.75;;;2.67;;
82727;SDS011;72459;50.110;8.750;2024-02-16T03:16:44;5.80;;;2.53;;
82727;SDS011;72459;50.110;8.750;2024-02-16T03:19:09;7.50;;;3.08;;
82727;SDS011;72459;50.110;8.750;2024-02-16T03:21:34;4.10;;;2.17;;
82727;SDS011;72459;50.110;8.750;2024-02-16T03:24:01;5.38;;;2.65;;
82727;SDS011;72459;50.110;8.750;2024-02-16T03:26:27;3.60;;;2.38;;
82727;SDS011;72459;50.110;8.750;2024-02-16T03:28:52;5.75;;;2.72;;
82727;SDS011;72459;50.110;8.750;2024-02-16T03:31:21;6.20;;;2.33;;
82727;SDS011;72459;50.110;8.750;2024-02-16T03:33:48;5.28;;;2.55;;
82727;SDS011;72459;50.110;8.750;2024-02-16T03:36:14;5.13;;;2.40;;
82727;SDS011;72459;50.110;8.750;2024-02-16T03:38:43;4.10;;;2.35;;
82727;SDS011;72459;50.110;8.750;2024-02-16T03:41:15;8.18;;;2.60;;
82727;SDS011;72459;50.110;8.750;2024-02-16T03:43:43;6.32;;;2.78;;
82727;SDS011;72459;50.110;8.750;2024-02-16T03:46:09;4.60;;;2.40;;
82727;SDS011;72459;50.110;8.750;2024-02-16T03:48:34;5.10;;;2.65;;
82727;SDS011;72459;50.110;8.750;2024-02-16T03:51:00;7.23;;;2.53;;
82727;SDS011;72459;50.110;8.750;2024-02-16T03:53:26;6.53;;;2.75;;
82727;SDS011;72459;50.110;8.750;2024-02-16T03:55:51;6.38;;;3.15;;
82727;SDS011;72459;50.110;8.750;2024-02-16T03:58:16;6.03;;;3.00;;
82727;SDS011;72459;50.110;8.750;2024-02-16T04:00:42;8.20;;;3.03;;
82727;SDS011;72459;50.110;8.750;2024-02-16T04:03:08;4.88;;;3.10;;
82727;SDS011;72459;50.110;8.750;2024-02-16T04:05:34;4.88;;;2.70;;
82727;SDS011;72459;50.110;8.750;2024-02-16T04:08:00;5.00;;;3.25;;
82727;SDS011;72459;50.110;8.750;2024-02-16T04:10:27;4.80;;;2.60;;
82727;SDS011;72459;50.110;8.750;2024-02-16T04:12:53;5.13;;;3.10;;
82727;SDS011;72459;50.110;8.750;2024-02-16T04:15:19;5.10;;;3.00;;
82727;SDS011;72459;50.110;8.750;2024-02-16T04:17:44;7.20;;;3.15;;
82727;SDS011;72459;50.110;8.750;2024-02-16T04:20:09;8.20;;;3.43;;
82727;SDS011;72459;50.110;8.750;2024-02-16T04:22:36;7.32;;;2.80;;
82727;SDS011;72459;50.110;8.750;2024-02-16T04:25:02;5.95;;;3.17;;
82727;SDS011;72459;50.110;8.750;2024-02-16T04:27:33;4.53;;;3.22;;
82727;SDS011;72459;50.110;8.750;2024-02-16T04:29:59;5.93;;;3.22;;
82727;SDS011;72459;50.110;8.750;2024-02-16T04:32:25;8.23;;;3.45;;
82727;SDS011;72459;50.110;8.750;2024-02-16T04:34:51;6.03;;;2.70;;
82727;SDS011;72459;50.110;8.750;2024-02-16T04:37:21;5.03;;;2.70;;
82727;SDS011;72459;50.110;8.750;2024-02-16T04:39:47;5.75;;;3.03;;
82727;SDS011;72459;50.110;8.750;2024-02-16T04:42:12;5.90;;;3.35;;
82727;SDS011;72459;50.110;8.750;2024-02-16T04:44:38;6.68;;;3.38;;
82727;SDS011;72459;50.110;8.750;2024-02-16T04:47:03;6.93;;;3.35;;
82727;SDS011;72459;50.110;8.750;2024-02-16T04:49:29;5.50;;;3.47;;
82727;SDS011;72459;50.110;8.750;2024-02-16T04:51:54;5.87;;;3.53;;
82727;SDS011;72459;50.110;8.750;2024-02-16T04:54:20;6.90;;;3.43;;
82727;SDS011;72459;50.110;8.750;2024-02-16T04:56:45;9.43;;;3.63;;
82727;SDS011;72459;50.110;8.750;2024-02-16T04:59:11;8.07;;;3.67;;
82727;SDS011;72459;50.110;8.750;2024-02-16T05:01:36;6.15;;;3.22;;
82727;SDS011;72459;50.110;8.750;2024-02-16T05:04:01;6.68;;;3.13;;
82727;SDS011;72459;50.110;8.750;2024-02-16T05:06:27;6.20;;;3.20;;
82727;SDS011;72459;50.110;8.750;2024-02-16T05:08:53;6.65;;;3.15;;
82727;SDS011;72459;50.110;8.750;2024-02-16T05:11:18;7.53;;;3.58;;
82727;SDS011;72459;50.110;8.750;2024-02-16T05:13:44;7.43;;;3.33;;
82727;SDS011;72459;50.110;8.750;2024-02-16T05:16:10;5.95;;;2.70;;
82727;SDS011;72459;50.110;8.750;2024-02-16T05:18:36;6.32;;;3.25;;
82727;SDS011;72459;50.110;8.750;2024-02-16T05:21:02;10.00;;;3.80;;
82727;SDS011;72459;50.110;8.750;2024-02-16T05:23:27;6.00;;;3.22;;
82727;SDS011;72459;50.110;8.750;2024-02-16T05:25:53;7.00;;;3.38;;
82727;SDS011;72459;50.110;8.750;2024-02-16T05:28:19;8.32;;;4.72;;
82727;SDS011;72459;50.110;8.750;2024-02-16T05:30:45;9.35;;;4.50;;
82727;SDS011;72459;50.110;8.750;2024-02-16T05:33:11;9.98;;;4.47;;
82727;SDS011;72459;50.110;8.750;2024-02-16T05:35:36;8.38;;;3.80;;
82727;SDS011;72459;50.110;8.750;2024-02-16T05:38:05;10.38;;;3.95;;
82727;SDS011;72459;50.110;8.750;2024-02-16T05:40:46;9.90;;;5.00;;
82727;SDS011;72459;50.110;8.750;2024-02-16T05:43:22;24.50;;;13.57;;
82727;SDS011;72459;50.110;8.750;2024-02-16T05:45:48;10.13;;;6.28;;
82727;SDS011;72459;50.110;8.750;2024-02-16T05:48:14;7.80;;;3.85;;
82727;SDS011;72459;50.110;8.750;2024-02-16T05:50:39;8.32;;;3.88;;
82727;SDS011;72459;50.110;8.750;2024-02-16T05:53:05;5.53;;;3.85;;
82727;SDS011;72459;50.110;8.750;2024-02-16T05:55:33;8.30;;;3.92;;
82727;SDS011;72459;50.110;8.750;2024-02-16T05:57:59;7.85;;;4.20;;
82727;SDS011;72459;50.110;8.750;2024-02-16T06:00:25;8.10;;;4.43;;
82727;SDS011;72459;50.110;8.750;2024-02-16T06:02:52;8.40;;;5.05;;
82727;SDS011;72459;50.110;8.750;2024-02-16T06:05:17;8.40;;;4.20;;
82727;SDS011;72459;50.110;8.750;2024-02-16T06:07:45;9.48;;;5.00;;
82727;SDS011;72459;50.110;8.750;2024-02-16T06:10:10;7.55;;;3.90;;
82727;SDS011;72459;50.110;8.750;2024-02-16T06:12:37;8.85;;;4.22;;
82727;SDS011;72459;50.110;8.750;2024-02-16T06:15:03;8.00;;;4.13;;
82727;SDS011;72459;50.110;8.750;2024-02-16T06:17:29;6.93;;;3.50;;
82727;SDS011;72459;50.110;8.750;2024-02-16T06:19:55;7.63;;;3.90;;
82727;SDS011;72459;50.110;8.750;2024-02-16T06:22:20;6.63;;;3.23;;
82727;SDS011;72459;50.110;8.750;2024-02-16T06:24:45;8.63;;;3.40;;
82727;SDS011;72459;50.110;8.750;2024-02-16T06:27:10;5.80;;;3.40;;
82727;SDS011;72459;50.110;8.750;2024-02-16T06:29:37;6.67;;;3.70;;
82727;SDS011;72459;50.110;8.750;2024-02-16T06:32:03;7.40;;;3.47;;
82727;SDS011;72459;50.110;8.750;2024-02-16T06:34:29;7.88;;;3.78;;
82727;SDS011;72459;50.110;8.750;2024-02-16T06:36:56;6.28;;;3.10;;
82727;SDS011;72459;50.110;8.750;2024-02-16T06:39:22;5.90;;;3.15;;
82727;SDS011;72459;50.110;8.750;2024-02-16T06:41:47;6.95;;;3.03;;
82727;SDS011;72459;50.110;8.750;2024-02-16T06:44:14;6.63;;;3.13;;
82727;SDS011;72459;50.110;8.750;2024-02-16T06:46:40;6.10;;;2.78;;
82727;SDS011;72459;50.110;8.750;2024-02-16T06:49:06;4.25;;;2.78;;
82727;SDS011;72459;50.110;8.750;2024-02-16T06:51:32;6.18;;;3.00;;
82727;SDS011;72459;50.110;8.750;2024-02-16T06:53:57;5.38;;;2.70;;
82727;SDS011;72459;50.110;8.750;2024-02-16T06:56:23;5.82;;;2.28;;
82727;SDS011;72459;50.110;8.750;2024-02-16T06:58:49;6.32;;;3.28;;
82727;SDS011;72459;50.110;8.750;2024-02-16T07:01:15;4.88;;;2.80;;
82727;SDS011;72459;50.110;8.750;2024-02-16T07:03:43;6.95;;;2.92;;
82727;SDS011;72459;50.110;8.750;2024-02-16T07:06:08;5.45;;;2.80;;
82727;SDS011;72459;50.110;8.750;2024-02-16T07:08:39;6.35;;;2.80;;
82727;SDS011;72459;50.110;8.750;2024-02-16T07:11:04;5.03;;;2.97;;
82727;SDS011;72459;50.110;8.750;2024-02-16T07:13:33;5.65;;;2.60;;
82727;SDS011;72459;50.110;8.750;2024-02-16T07:15:59;3.30;;;2.15;;
82727;SDS011;72459;50.110;8.750;2024-02-16T07:18:25;4.22;;;2.38;;
82727;SDS011;72459;50.110;8.750;2024-02-16T07:20:51;4.35;;;2.72;;
82727;SDS011;72459;50.110;8.750;2024-02-16T07:23:16;5.35;;;2.28;;
82727;SDS011;72459;50.110;8.750;2024-02-16T07:25:42;3.75;;;2.30;;
82727;SDS011;72459;50.110;8.750;2024-02-16T07:28:08;3.92;;;2.42;;
82727;SDS011;72459;50.110;8.750;2024-02-16T07:30:35;5.35;;;2.63;;
82727;SDS011;72459;50.110;8.750;2024-02-16T07:33:04;3.70;;;2.45;;
82727;SDS011;72459;50.110;8.750;2024-02-16T07:35:32;4.13;;;2.33;;
82727;SDS011;72459;50.110;8.750;2024-02-16T07:38:01;5.07;;;2.40;;
82727;SDS011;72459;50.110;8.750;2024-02-16T07:40:27;5.95;;;2.20;;
82727;SDS011;72459;50.110;8.750;2024-02-16T07:42:52;6.13;;;2.47;;
82727;SDS011;72459;50.110;8.750;2024-02-16T07:45:18;5.80;;;2.22;;
82727;SDS011;72459;50.110;8.750;2024-02-16T07:47:43;5.20;;;2.45;;
82727;SDS011;72459;50.110;8.750;2024-02-16T07:50:09;5.35;;;2.60;;
82727;SDS011;72459;50.110;8.750;2024-02-16T07:52:35;4.57;;;2.30;;
82727;SDS011;72459;50.110;8.750;2024-02-16T07:55:00;4.13;;;2.47;;
82727;SDS011;72459;50.110;8.750;2024-02-16T07:57:26;7.57;;;2.60;;
82727;SDS011;72459;50.110;8.750;2024-02-16T07:59:52;5.00;;;3.00;;
82727;SDS011;72459;50.110;8.750;2024-02-16T08:02:17;4.70;;;2.70;;
82727;SDS011;72459;50.110;8.750;2024-02-16T08:04:46;5.25;;;2.40;;
82727;SDS011;72459;50.110;8.750;2024-02-16T08:07:14;5.25;;;2.10;;
82727;SDS011;72459;50.110;8.750;2024-02-16T08:09:43;3.70;;;2.10;;
82727;SDS011;72459;50.110;8.750;2024-02-16T08:12:10;5.53;;;2.22;;
82727;SDS011;72459;50.110;8.750;2024-02-16T08:14:35;5.10;;;2.10;;
82727;SDS011;72459;50.110;8.750;2024-02-16T08:17:00;5.43;;;2.80;;
82727;SDS011;72459;50.110;8.750;2024-02-16T08:19:37;6.32;;;2.80;;
82727;SDS011;72459;50.110;8.750;2024-02-16T08:22:03;4.78;;;2.05;;
82727;SDS011;72459;50.110;8.750;2024-02-16T08:24:34;4.20;;;1.90;;
82727;SDS011;72459;50.110;8.750;2024-02-16T08:27:02;6.95;;;2.65;;
82727;SDS011;72459;50.110;8.750;2024-02-16T08:29:29;3.53;;;2.38;;
82727;SDS011;72459;50.110;8.750;2024-02-16T08:31:55;3.95;;;2.47;;
82727;SDS011;72459;50.110;8.750;2024-02-16T08:34:20;4.43;;;2.53;;
82727;SDS011;72459;50.110;8.750;2024-02-16T08:36:47;4.07;;;2.95;;
82727;SDS011;72459;50.110;8.750;2024-02-16T08:39:13;5.00;;;2.72;;
82727;SDS011;72459;50.110;8.750;2024-02-16T08:41:39;5.82;;;2.75;;
82727;SDS011;72459;50.110;8.750;2024-02-16T08:44:05;6.88;;;2.90;;
82727;SDS011;72459;50.110;8.750;2024-02-16T08:46:35;5.78;;;2.85;;
82727;SDS011;72459;50.110;8.750;2024-02-16T08:49:02;4.35;;;2.63;;
82727;SDS011;72459;50.110;8.750;2024-02-16T08:51:28;5.45;;;2.67;;
82727;SDS011;72459;50.110;8.750;2024-02-16T08:53:54;5.25;;;2.97;;
82727;SDS011;72459;50.110;8.750;2024-02-16T08:56:20;6.82;;;3.03;;
82727;SDS011;72459;50.110;8.750;2024-02-16T08:58:45;6.93;;;3.22;;
82727;SDS011;72459;50.110;8.750;2024-02-16T09:01:10;5.65;;;3.17;;
82727;SDS011;72459;50.110;8.750;2024-02-16T09:03:36;7.20;;;3.40;;
82727;SDS011;72459;50.110;8.750;2024-02-16T09:06:04;7.90;;;3.50;;
82727;SDS011;72459;50.110;8.750;2024-02-16T09:08:29;6.63;;;3.38;;
82727;SDS011;72459;50.110;8.750;2024-02-16T09:11:05;7.05;;;3.60;;
82727;SDS011;72459;50.110;8.750;2024-02-16T09:13:33;6.25;;;3.45;;
82727;SDS011;72459;50.110;8.750;2024-02-16T09:16:00;7.57;;;3.28;;
82727;SDS011;72459;50.110;8.750;2024-02-16T09:18:26;4.93;;;3.22;;
82727;SDS011;72459;50.110;8.750;2024-02-16T09:20:52;7.47;;;3.58;;
82727;SDS011;72459;50.110;8.750;2024-02-16T09:23:17;7.53;;;3.75;;
82727;SDS011;72459;50.110;8.750;2024-02-16T09:25:43;6.47;;;3.10;;
82727;SDS011;72459;50.110;8.750;2024-02-16T09:28:10;5.78;;;3.58;;
82727;SDS011;72459;50.110;8.750;2024-02-16T09:30:36;7.40;;;3.38;;
82727;SDS011;72459;50.110;8.750;2024-02-16T09:33:02;5.25;;;3.42;;
82727;SDS011;72459;50.110;8.750;2024-02-16T09:35:28;5.50;;;3.60;;
82727;SDS011;72459;50.110;8.750;2024-02-16T09:37:53;6.72;;;3.70;;
82727;SDS011;72459;50.110;8.750;2024-02-16T09:40:19;7.17;;;3.70;;
82727;SDS011;72459;50.110;8.750;2024-02-16T09:42:47;6.38;;;3.65;;
82727;SDS011;72459;50.110;8.750;2024-02-16T09:45:14;8.43;;;3.50;;
82727;SDS011;72459;50.110;8.750;2024-02-16T09:47:41;6.50;;;3.60;;
82727;SDS011;72459;50.110;8.750;2024-02-16T09:50:09;4.90;;;3.72;;
82727;SDS011;72459;50.110;8.750;2024-02-16T09:52:35;6.20;;;3.53;;
82727;SDS011;72459;50.110;8.750;2024-02-16T09:55:01;4.57;;;3.50;;
82727;SDS011;72459;50.110;8.750;2024-02-16T09:57:26;9.13;;;3.95;;
82727;SDS011;72459;50.110;8.750;2024-02-16T09:59:52;6.60;;;3.65;;
82727;SDS011;72459;50.110;8.750;2024-02-16T10:02:17;8.73;;;4.00;;
82727;SDS011;72459;50.110;8.750;2024-02-16T10:04:43;5.03;;;3.10;;
82727;SDS011;72459;50.110;8.750;2024-02-16T10:07:08;6.83;;;4.00;;
82727;SDS011;72459;50.110;8.750;2024-02-16T10:09:33;5.63;;;3.17;;
82727;SDS011;72459;50.110;8.750;2024-02-16T10:12:00;6.85;;;3.53;;
82727;SDS011;72459;50.110;8.750;2024-02-16T10:14:25;5.95;;;3.65;;
82727;SDS011;72459;50.110;8.750;2024-02-16T10:19:27;8.45;;;3.60;;
82727;SDS011;72459;50.110;8.750;2024-02-16T10:21:53;5.72;;;3.50;;
82727;SDS011;72459;50.110;8.750;2024-02-16T10:24:21;5.10;;;3.00;;
82727;SDS011;72459;50.110;8.750;2024-02-16T10:26:47;8.23;;;3.45;;
82727;SDS011;72459;50.110;8.750;2024-02-16T10:29:14;7.38;;;3.40;;
82727;SDS011;72459;50.110;8.750;2024-02-16T10:31:44;6.13;;;3.33;;
82727;SDS011;72459;50.110;8.750;2024-02-16T10:34:12;5.25;;;2.88;;
82727;SDS011;72459;50.110;8.750;2024-02-16T10:36:38;8.10;;;3.45;;
82727;SDS011;72459;50.110;8.750;2024-02-16T10:39:05;4.43;;;2.92;;
82727;SDS011;72459;50.110;8.750;2024-02-16T10:41:33;7.10;;;3.25;;
82727;SDS011;72459;50.110;8.750;2024-02-16T10:44:00;5.22;;;3.08;;
82727;SDS011;72459;50.110;8.750;2024-02-16T10:46:28;5.22;;;3.33;;
82727;SDS011;72459;50.110;8.750;2024-02-16T10:48:55;5.05;;;3.50;;
82727;SDS011;72459;50.110;8.750;2024-02-16T10:51:30;4.88;;;3.20;;
82727;SDS011;72459;50.110;8.750;2024-02-16T10:54:01;4.00;;;2.85;;
82727;SDS011;72459;50.110;8.750;2024-02-16T10:56:36;7.15;;;3.00;;
82727;SDS011;72459;50.110;8.750;2024-02-16T10:59:03;5.43;;;2.97;;
82727;SDS011;72459;50.110;8.750;2024-02-16T11:01:37;7.80;;;3.30;;
82727;SDS011;72459;50.110;8.750;2024-02-16T11:04:03;4.40;;;2.42;;
82727;SDS011;72459;50.110;8.750;2024-02-16T11:06:33;6.43;;;2.83;;
82727;SDS011;72459;50.110;8.750;2024-02-16T11:09:27;4.82;;;2.70;;
82727;SDS011;72459;50.110;8.750;2024-02-16T11:11:58;4.63;;;2.47;;
82727;SDS011;72459;50.110;8.750;2024-02-16T11:14:34;5.05;;;3.03;;
82727;SDS011;72459;50.110;8.750;2024-02-16T11:19:41;5.10;;;2.63;;
82727;SDS011;72459;50.110;8.750;2024-02-16T11:22:08;5.00;;;2.85;;
82727;SDS011;72459;50.110;8.750;2024-02-16T11:24:37;5.38;;;3.17;;
82727;SDS011;72459;50.110;8.750;2024-02-16T11:27:09;4.15;;;2.63;;
82727;SDS011;72459;50.110;8.750;2024-02-16T11:29:36;4.70;;;2.80;;
82727;SDS011;72459;50.110;8.750;2024-02-16T11:32:03;5.15;;;2.30;;
82727;SDS011;72459;50.110;8.750;2024-02-16T11:34:30;3.78;;;2.30;;
82727;SDS011;72459;50.110;8.750;2024-02-16T11:36:57;5.03;;;2.25;;
82727;SDS011;72459;50.110;8.750;2024-02-16T11:39:23;6.40;;;2.15;;
82727;SDS011;72459;50.110;8.750;2024-02-16T11:44:35;5.63;;;2.58;;
82727;SDS011;72459;50.110;8.750;2024-02-16T11:47:02;5.45;;;2.80;;
82727;SDS011;72459;50.110;8.750;2024-02-16T11:49:28;5.80;;;2.35;;
82727;SDS011;72459;50.110;8.750;2024-02-16T11:51:54;4.65;;;2.47;;
82727;SDS011;72459;50.110;8.750;2024-02-16T11:54:20;4.60;;;2.67;;
82727;SDS011;72459;50.110;8.750;2024-02-16T11:56:46;5.30;;;2.45;;
82727;SDS011;72459;50.110;8.750;2024-02-16T11:59:16;5.90;;;2.65;;
82727;SDS011;72459;50.110;8.750;2024-02-16T12:01:52;6.05;;;2.92;;
82727;SDS011;72459;50.110;8.750;2024-02-16T12:04:28;7.05;;;2.58;;
82727;SDS011;72459;50.110;8.750;2024-02-16T12:06:58;4.13;;;2.60;;
82727;SDS011;72459;50.110;8.750;2024-02-16T12:09:27;6.38;;;3.25;;
82727;SDS011;72459;50.110;8.750;2024-02-16T12:11:54;4.80;;;2.60;;
82727;SDS011;72459;50.110;8.750;2024-02-16T12:14:23;5.05;;;2.30;;
82727;SDS011;72459;50.110;8.750;2024-02-16T12:16:54;5.20;;;2.40;;
82727;SDS011;72459;50.110;8.750;2024-02-16T12:19:21;4.57;;;2.58;;
82727;SDS011;72459;50.110;8.750;2024-02-16T12:21:57;7.60;;;4.78;;
82727;SDS011;72459;50.110;8.750;2024-02-16T12:24:22;11.30;;;6.30;;
82727;SDS011;72459;50.110;8.750;2024-02-16T12:26:49;3.38;;;2.22;;
82727;SDS011;72459;50.110;8.750;2024-02-16T12:29:14;2.42;;;1.50;;
82727;SDS011;72459;50.110;8.750;2024-02-16T12:31:41;4.50;;;1.77;;
82727;SDS011;72459;50.110;8.750;2024-02-16T12:34:08;3.40;;;1.70;;
82727;SDS011;72459;50.110;8.750;2024-02-16T12:36:34;5.55;;;1.83;;
82727;SDS011;72459;50.110;8.750;2024-02-16T12:39:01;4.68;;;2.00;;
82727;SDS011;72459;50.110;8.750;2024-02-16T12:41:28;5.38;;;1.60;;
82727;SDS011;72459;50.110;8.750;2024-02-16T12:43:57;4.20;;;2.00;;
82727;SDS011;72459;50.110;8.750;2024-02-16T12:46:23;2.72;;;1.60;;
82727;SDS011;72459;50.110;8.750;2024-02-16T12:48:49;3.97;;;1.35;;
82727;SDS011;72459;50.110;8.750;2024-02-16T12:51:15;3.42;;;1.60;;
82727;SDS011;72459;50.110;8.750;2024-02-16T12:53:40;2.33;;;1.42;;
82727;SDS011;72459;50.110;8.750;2024-02-16T12:56:06;8.52;;;1.70;;
82727;SDS011;72459;50.110;8.750;2024-02-16T12:58:38;4.38;;;1.80;;
82727;SDS011;72459;50.110;8.750;2024-02-16T13:01:04;3.83;;;1.55;;
82727;SDS011;72459;50.110;8.750;2024-02-16T13:03:36;3.92;;;1.88;;
82727;SDS011;72459;50.110;8.750;2024-02-16T13:06:04;4.13;;;1.45;;
82727;SDS011;72459;50.110;8.750;2024-02-16T13:08:30;5.18;;;1.73;;
82727;SDS011;72459;50.110;8.750;2024-02-16T13:10:56;5.38;;;2.30;;
82727;SDS011;72459;50.110;8.750;2024-02-16T13:13:22;6.57;;;2.00;;
82727;SDS011;72459;50.110;8.750;2024-02-16T13:15:48;3.83;;;1.58;;
82727;SDS011;72459;50.110;8.750;2024-02-16T13:18:15;2.95;;;1.33;;
82727;SDS011;72459;50.110;8.750;2024-02-16T13:20:41;5.53;;;1.73;;
82727;SDS011;72459;50.110;8.750;2024-02-16T13:23:07;5.07;;;1.70;;
82727;SDS011;72459;50.110;8.750;2024-02-16T13:25:32;5.53;;;1.73;;
82727;SDS011;72459;50.110;8.750;2024-02-16T13:27:58;7.03;;;1.98;;
82727;SDS011;72459;50.110;8.750;2024-02-16T13:30:24;5.78;;;2.15;;
82727;SDS011;72459;50.110;8.750;2024-02-16T13:32:50;4.95;;;1.85;;
82727;SDS011;72459;50.110;8.750;2024-02-16T13:35:16;6.90;;;1.65;;
82727;SDS011;72459;50.110;8.750;2024-02-16T13:37:41;5.75;;;1.50;;
82727;SDS011;72459;50.110;8.750;2024-02-16T13:40:07;6.30;;;1.83;;
82727;SDS011;72459;50.110;8.750;2024-02-16T13:42:37;5.05;;;1.90;;
82727;SDS011;72459;50.110;8.750;2024-02-16T13:45:07;7.35;;;1.65;;
82727;SDS011;72459;50.110;8.750;2024-02-16T13:47:33;4.03;;;1.88;;
82727;SDS011;72459;50.110;8.750;2024-02-16T13:49:58;5.57;;;1.55;;
82727;SDS011;72459;50.110;8.750;2024-02-16T13:52:25;5.30;;;1.70;;
82727;SDS011;72459;50.110;8.750;2024-02-16T13:54:51;4.22;;;1.77;;
82727;SDS011;72459;50.110;8.750;2024-02-16T13:57:17;3.17;;;2.00;;
82727;SDS011;72459;50.110;8.750;2024-02-16T13:59:42;3.47;;;1.80;;
82727;SDS011;72459;50.110;8.750;2024-02-16T14:02:08;3.25;;;1.73;;
82727;SDS011;72459;50.110;8.750;2024-02-16T14:04:34;4.50;;;1.70;;
82727;SDS011;72459;50.110;8.750;2024-02-16T14:07:01;3.92;;;1.98;;
82727;SDS011;72459;50.110;8.750;2024-02-16T14:09:26;3.60;;;2.00;;
82727;SDS011;72459;50.110;8.750;2024-02-16T14:11:52;6.25;;;1.80;;
82727;SDS011;72459;50.110;8.750;2024-02-16T14:14:20;5.07;;;1.95;;
82727;SDS011;72459;50.110;8.750;2024-02-16T14:16:47;5.90;;;1.70;;
82727;SDS011;72459;50.110;8.750;2024-02-16T14:19:13;4.15;;;1.60;;
82727;SDS011;72459;50.110;8.750;2024-02-16T14:21:38;3.75;;;1.67;;
82727;SDS011;72459;50.110;8.750;2024-02-16T14:24:04;3.65;;;1.80;;
82727;SDS011;72459;50.110;8.750;2024-02-16T14:26:30;6.28;;;1.77;;
82727;SDS011;72459;50.110;8.750;2024-02-16T14:28:55;2.83;;;1.60;;
82727;SDS011;72459;50.110;8.750;2024-02-16T14:31:21;3.75;;;1.70;;
82727;SDS011;72459;50.110;8.750;2024-02-16T14:33:47;5.30;;;2.13;;
82727;SDS011;72459;50.110;8.750;2024-02-16T14:36:13;4.53;;;2.10;;
82727;SDS011;72459;50.110;8.750;2024-02-16T14:38:39;5.97;;;1.65;;
82727;SDS011;72459;50.110;8.750;2024-02-16T14:41:04;8.80;;;3.58;;
82727;SDS011;72459;50.110;8.750;2024-02-16T14:43:31;4.13;;;2.03;;
82727;SDS011;72459;50.110;8.750;2024-02-16T14:45:58;3.00;;;1.60;;
82727;SDS011;72459;50.110;8.750;2024-02-16T14:48:25;4.88;;;1.67;;
82727;SDS011;72459;50.110;8.750;2024-02-16T14:50:53;5.82;;;1.90;;